sensor_id;sensor_type;location;lat;lon;timestamp;temperature;humidity
15676;DHT22;7938;47.666;9.434;2023-04-04T04:02:05;-1.50;99.90
15676;DHT22;7938;47.666;9.434;2023-04-04T04:04:32;-1.60;99.90
15676;DHT22;7938;47.666;9.434;2023-04-04T04:06:59;-1.70;99.90
15676;DHT22;7938;47.666;9.434;2023-04-04T04:09:27;-1.70;99.10
15676;DHT22;7938;47.666;9.434;2023-04-04T04:11:53;-1.80;99.90
15676;DHT22;7938;47.666;9.434;2023-04-04T04:16:48;-1.90;99.90
15676;DHT22;7938;47.666;9.434;2023-04-04T04:19:16;-1.60;99.90
15676;DHT22;7938;47.666;9.434;2023-04-04T04:24:10;-2.00;99.70
15676;DHT22;7938;47.666;9.434;2023-04-04T04:29:04;-1.90;99.90
15676;DHT22;7938;47.666;9.434;2023-04-04T04:31:32;-1.90;99.90
15676;DHT22;7938;47.666;9.434;2023-04-04T04:33:59;-2.10;99.90
15676;DHT22;7938;47.666;9.434;2023-04-04T04:36:27;-2.00;99.90
15676;DHT22;7938;47.666;9.434;2023-04-04T04:41:21;-2.00;99.90
15676;DHT22;7938;47.666;9.434;2023-04-04T04:43:48;-1.90;99.70
15676;DHT22;7938;47.666;9.434;2023-04-04T04:46:15;-0.70;99.90
15676;DHT22;7938;47.666;9.434;2023-04-04T04:48:42;-2.00;99.70
15676;DHT22;7938;47.666;9.434;2023-04-04T04:51:09;-2.10;99.50
15676;DHT22;7938;47.666;9.434;2023-04-04T04:53:37;-2.00;99.80
15676;DHT22;7938;47.666;9.434;2023-04-04T04:56:05;-2.10;99.90
15676;DHT22;7938;47.666;9.434;2023-04-04T04:58:32;-2.10;99.60
15676;DHT22;7938;47.666;9.434;2023-04-04T05:00:59;-2.00;99.90
15676;DHT22;7938;47.666;9.434;2023-04-04T05:03:26;-2.10;99.90
15676;DHT22;7938;47.666;9.434;2023-04-04T05:05:53;-2.00;99.90
15676;DHT22;7938;47.666;9.434;2023-04-04T05:08:20;-2.10;99.90
15676;DHT22;7938;47.666;9.434;2023-04-04T05:10:49;-2.10;99.80
15676;DHT22;7938;47.666;9.434;2023-04-04T05:13:17;-2.00;99.90
15676;DHT22;7938;47.666;9.434;2023-04-04T05:15:45;-2.10;99.80
15676;DHT22;7938;47.666;9.434;2023-04-04T05:18:12;-2.10;99.70
15676;DHT22;7938;47.666;9.434;2023-04-04T05:20:39;-2.10;99.90
15676;DHT22;7938;47.666;9.434;2023-04-04T05:23:06;-2.10;99.90
15676;DHT22;7938;47.666;9.434;2023-04-04T05:25:33;-1.90;99.90
15676;DHT22;7938;47.666;9.434;2023-04-04T05:28:01;-2.10;99.90
15676;DHT22;7938;47.666;9.434;2023-04-04T05:30:28;-2.00;99.90
15676;DHT22;7938;47.666;9.434;2023-04-04T05:35:22;-2.00;99.80
15676;DHT22;7938;47.666;9.434;2023-04-04T05:37:50;-1.90;99.90
15676;DHT22;7938;47.666;9.434;2023-04-04T05:40:17;-1.90;99.90
15676;DHT22;7938;47.666;9.434;2023-04-04T05:42:53;-3.00;99.20
15676;DHT22;7938;47.666;9.434;2023-04-04T05:45:21;-1.70;99.90
15676;DHT22;7938;47.666;9.434;2023-04-04T05:47:48;-1.80;99.80
15676;DHT22;7938;47.666;9.434;2023-04-04T05:50:15;-1.70;99.70
15676;DHT22;7938;47.666;9.434;2023-04-04T05:52:42;-1.70;99.40
15676;DHT22;7938;47.666;9.434;2023-04-04T05:55:09;-1.70;99.70
15676;DHT22;7938;47.666;9.434;2023-04-04T05:57:36;-1.60;99.70
15676;DHT22;7938;47.666;9.434;2023-04-04T06:00:04;-1.30;99.40
15676;DHT22;7938;47.666;9.434;2023-04-04T06:02:35;-1.20;99.00
15676;DHT22;7938;47.666;9.434;2023-04-04T06:05:03;-1.30;99.20
15676;DHT22;7938;47.666;9.434;2023-04-04T06:07:30;-1.40;99.40
15676;DHT22;7938;47.666;9.434;2023-04-04T06:09:57;-1.40;99.50
15676;DHT22;7938;47.666;9.434;2023-04-04T06:14:51;-1.30;99.20
15676;DHT22;7938;47.666;9.434;2023-04-04T06:17:18;-1.40;99.30
15676;DHT22;7938;47.666;9.434;2023-04-04T06:19:47;-1.20;99.30
15676;DHT22;7938;47.666;9.434;2023-04-04T06:22:14;-1.10;99.20
15676;DHT22;7938;47.666;9.434;2023-04-04T06:24:42;-1.00;99.40
15676;DHT22;7938;47.666;9.434;2023-04-04T06:27:09;-0.90;99.40
15676;DHT22;7938;47.666;9.434;2023-04-04T06:29:36;-0.80;99.10
15676;DHT22;7938;47.666;9.434;2023-04-04T06:32:03;-0.70;99.40
15676;DHT22;7938;47.666;9.434;2023-04-04T06:34:31;-0.70;99.10
15676;DHT22;7938;47.666;9.434;2023-04-04T06:36:59;-0.90;99.50
15676;DHT22;7938;47.666;9.434;2023-04-04T06:39:26;-0.50;99.10
15676;DHT22;7938;47.666;9.434;2023-04-04T06:41:54;-0.40;98.70
15676;DHT22;7938;47.666;9.434;2023-04-04T06:44:21;-0.40;98.80
15676;DHT22;7938;47.666;9.434;2023-04-04T06:46:48;-0.30;99.20
15676;DHT22;7938;47.666;9.434;2023-04-04T06:49:16;-0.20;98.60
15676;DHT22;7938;47.666;9.434;2023-04-04T06:51:43;-0.30;98.40
15676;DHT22;7938;47.666;9.434;2023-04-04T06:54:12;-0.20;98.70
15676;DHT22;7938;47.666;9.434;2023-04-04T06:56:39;0.00;99.20
15676;DHT22;7938;47.666;9.434;2023-04-04T06:59:06;0.00;98.70
15676;DHT22;7938;47.666;9.434;2023-04-04T07:01:35;0.20;98.40
15676;DHT22;7938;47.666;9.434;2023-04-04T07:04:02;0.20;98.60
15676;DHT22;7938;47.666;9.434;2023-04-04T07:06:29;0.40;98.40
15676;DHT22;7938;47.666;9.434;2023-04-04T07:08:56;0.40;98.30
15676;DHT22;7938;47.666;9.434;2023-04-04T07:11:24;0.60;98.10
15676;DHT22;7938;47.666;9.434;2023-04-04T07:13:51;0.60;98.30
15676;DHT22;7938;47.666;9.434;2023-04-04T07:16:18;0.80;97.80
15676;DHT22;7938;47.666;9.434;2023-04-04T07:18:45;0.90;97.60
15676;DHT22;7938;47.666;9.434;2023-04-04T07:21:12;0.50;97.10
15676;DHT22;7938;47.666;9.434;2023-04-04T07:23:39;0.40;97.50
15676;DHT22;7938;47.666;9.434;2023-04-04T07:26:07;0.50;97.90
15676;DHT22;7938;47.666;9.434;2023-04-04T07:28:35;0.50;97.70
15676;DHT22;7938;47.666;9.434;2023-04-04T07:31:04;0.90;99.90
15676;DHT22;7938;47.666;9.434;2023-04-04T07:33:31;0.80;97.60
15676;DHT22;7938;47.666;9.434;2023-04-04T07:36:00;0.90;97.50
15676;DHT22;7938;47.666;9.434;2023-04-04T07:38:26;0.90;97.10
15676;DHT22;7938;47.666;9.434;2023-04-04T07:40:53;1.10;96.90
15676;DHT22;7938;47.666;9.434;2023-04-04T07:43:20;1.10;97.10
15676;DHT22;7938;47.666;9.434;2023-04-04T07:45:49;1.20;97.20
15676;DHT22;7938;47.666;9.434;2023-04-04T07:48:16;1.30;96.90
15676;DHT22;7938;47.666;9.434;2023-04-04T07:50:43;1.40;95.90
15676;DHT22;7938;47.666;9.434;2023-04-04T07:53:10;1.40;96.30
15676;DHT22;7938;47.666;9.434;2023-04-04T07:55:37;1.60;96.10
15676;DHT22;7938;47.666;9.434;2023-04-04T07:58:03;1.80;96.40
15676;DHT22;7938;47.666;9.434;2023-04-04T08:00:31;2.00;97.00
15676;DHT22;7938;47.666;9.434;2023-04-04T08:02:59;2.00;94.30
15676;DHT22;7938;47.666;9.434;2023-04-04T08:05:27;2.10;95.00
15676;DHT22;7938;47.666;9.434;2023-04-04T08:07:54;2.20;94.30
15676;DHT22;7938;47.666;9.434;2023-04-04T08:10:21;2.20;94.30
15676;DHT22;7938;47.666;9.434;2023-04-04T08:12:48;2.20;94.10
15676;DHT22;7938;47.666;9.434;2023-04-04T08:15:15;2.40;93.90
15676;DHT22;7938;47.666;9.434;2023-04-04T08:17:42;2.40;94.00
15676;DHT22;7938;47.666;9.434;2023-04-04T08:20:11;2.40;93.60
15676;DHT22;7938;47.666;9.434;2023-04-04T08:22:39;2.50;93.30
15676;DHT22;7938;47.666;9.434;2023-04-04T08:25:07;2.60;93.80
15676;DHT22;7938;47.666;9.434;2023-04-04T08:27:34;2.80;93.50
15676;DHT22;7938;47.666;9.434;2023-04-04T08:30:01;3.00;94.00
15676;DHT22;7938;47.666;9.434;2023-04-04T08:32:29;2.90;93.20
15676;DHT22;7938;47.666;9.434;2023-04-04T08:34:56;3.00;93.40
15676;DHT22;7938;47.666;9.434;2023-04-04T08:37:25;3.00;93.30
15676;DHT22;7938;47.666;9.434;2023-04-04T08:39:53;3.10;93.00
15676;DHT22;7938;47.666;9.434;2023-04-04T08:42:22;3.10;92.10
15676;DHT22;7938;47.666;9.434;2023-04-04T08:44:52;3.00;92.50
15676;DHT22;7938;47.666;9.434;2023-04-04T08:47:20;3.00;92.80
15676;DHT22;7938;47.666;9.434;2023-04-04T08:49:48;3.20;93.40
15676;DHT22;7938;47.666;9.434;2023-04-04T08:52:17;3.40;92.40
15676;DHT22;7938;47.666;9.434;2023-04-04T08:54:48;3.40;92.70
15676;DHT22;7938;47.666;9.434;2023-04-04T08:59:43;3.50;92.10
15676;DHT22;7938;47.666;9.434;2023-04-04T09:02:16;3.50;92.40
15676;DHT22;7938;47.666;9.434;2023-04-04T09:04:45;3.60;91.80
15676;DHT22;7938;47.666;9.434;2023-04-04T09:07:14;3.90;92.50
15676;DHT22;7938;47.666;9.434;2023-04-04T09:09:43;4.00;91.90
15676;DHT22;7938;47.666;9.434;2023-04-04T09:12:14;3.80;91.40
15676;DHT22;7938;47.666;9.434;2023-04-04T09:14:42;3.80;92.20
15676;DHT22;7938;47.666;9.434;2023-04-04T09:17:10;3.90;92.40
15676;DHT22;7938;47.666;9.434;2023-04-04T09:19:38;3.80;91.50
15676;DHT22;7938;47.666;9.434;2023-04-04T09:22:06;4.00;91.30
15676;DHT22;7938;47.666;9.434;2023-04-04T09:24:41;3.90;90.70
15676;DHT22;7938;47.666;9.434;2023-04-04T09:27:09;4.00;90.70
15676;DHT22;7938;47.666;9.434;2023-04-04T09:29:38;4.10;91.20
15676;DHT22;7938;47.666;9.434;2023-04-04T09:32:07;4.00;89.60
15676;DHT22;7938;47.666;9.434;2023-04-04T09:34:34;4.30;91.00
15676;DHT22;7938;47.666;9.434;2023-04-04T09:37:02;4.20;90.10
15676;DHT22;7938;47.666;9.434;2023-04-04T09:39:30;4.50;90.70
15676;DHT22;7938;47.666;9.434;2023-04-04T09:41:58;4.80;90.50
15676;DHT22;7938;47.666;9.434;2023-04-04T09:44:26;4.70;88.80
15676;DHT22;7938;47.666;9.434;2023-04-04T09:47:22;4.70;89.30
15676;DHT22;7938;47.666;9.434;2023-04-04T09:49:49;4.60;88.00
15676;DHT22;7938;47.666;9.434;2023-04-04T09:52:17;4.60;87.00
15676;DHT22;7938;47.666;9.434;2023-04-04T09:54:54;4.60;88.20
15676;DHT22;7938;47.666;9.434;2023-04-04T09:57:21;4.90;90.40
15676;DHT22;7938;47.666;9.434;2023-04-04T09:59:48;4.90;89.90
15676;DHT22;7938;47.666;9.434;2023-04-04T10:02:17;5.00;89.90
15676;DHT22;7938;47.666;9.434;2023-04-04T10:04:44;5.10;90.20
15676;DHT22;7938;47.666;9.434;2023-04-04T10:07:12;5.00;88.40
15676;DHT22;7938;47.666;9.434;2023-04-04T10:09:39;5.20;89.70
15676;DHT22;7938;47.666;9.434;2023-04-04T10:12:10;5.20;87.80
15676;DHT22;7938;47.666;9.434;2023-04-04T10:14:37;5.20;87.60
15676;DHT22;7938;47.666;9.434;2023-04-04T10:17:08;5.10;88.80
15676;DHT22;7938;47.666;9.434;2023-04-04T10:19:37;5.20;85.90
15676;DHT22;7938;47.666;9.434;2023-04-04T10:22:04;5.10;85.80
15676;DHT22;7938;47.666;9.434;2023-04-04T10:24:31;5.20;87.10
15676;DHT22;7938;47.666;9.434;2023-04-04T10:26:58;5.60;85.30
15676;DHT22;7938;47.666;9.434;2023-04-04T10:29:25;5.60;85.00
15676;DHT22;7938;47.666;9.434;2023-04-04T10:31:56;5.60;86.50
15676;DHT22;7938;47.666;9.434;2023-04-04T10:34:29;6.00;85.60
15676;DHT22;7938;47.666;9.434;2023-04-04T10:37:05;6.00;84.50
15676;DHT22;7938;47.666;9.434;2023-04-04T10:39:36;6.00;83.70
15676;DHT22;7938;47.666;9.434;2023-04-04T10:42:04;5.70;81.10
15676;DHT22;7938;47.666;9.434;2023-04-04T10:44:32;5.70;83.50
15676;DHT22;7938;47.666;9.434;2023-04-04T10:47:06;6.00;82.60
15676;DHT22;7938;47.666;9.434;2023-04-04T10:49:36;5.90;82.40
15676;DHT22;7938;47.666;9.434;2023-04-04T10:52:05;6.20;85.70
15676;DHT22;7938;47.666;9.434;2023-04-04T10:54:33;6.30;85.10
15676;DHT22;7938;47.666;9.434;2023-04-04T10:57:00;6.10;84.00
15676;DHT22;7938;47.666;9.434;2023-04-04T10:59:28;6.20;83.20
15676;DHT22;7938;47.666;9.434;2023-04-04T11:01:56;6.20;84.00
15676;DHT22;7938;47.666;9.434;2023-04-04T11:04:30;6.30;83.40
15676;DHT22;7938;47.666;9.434;2023-04-04T11:07:10;6.10;82.40
15676;DHT22;7938;47.666;9.434;2023-04-04T11:09:51;6.10;82.90
15676;DHT22;7938;47.666;9.434;2023-04-04T11:12:29;6.60;83.60
15676;DHT22;7938;47.666;9.434;2023-04-04T11:15:09;6.50;84.00
15676;DHT22;7938;47.666;9.434;2023-04-04T11:17:42;6.40;82.00
15676;DHT22;7938;47.666;9.434;2023-04-04T11:20:09;6.40;80.80
15676;DHT22;7938;47.666;9.434;2023-04-04T11:22:39;6.40;82.50
15676;DHT22;7938;47.666;9.434;2023-04-04T11:25:29;6.30;81.80
15676;DHT22;7938;47.666;9.434;2023-04-04T11:27:57;6.20;82.60
15676;DHT22;7938;47.666;9.434;2023-04-04T11:30:26;6.60;84.90
15676;DHT22;7938;47.666;9.434;2023-04-04T11:35:24;6.40;79.20
15676;DHT22;7938;47.666;9.434;2023-04-04T11:38:01;7.00;79.70
15676;DHT22;7938;47.666;9.434;2023-04-04T11:40:38;6.60;83.40
15676;DHT22;7938;47.666;9.434;2023-04-04T11:43:10;6.70;80.10
15676;DHT22;7938;47.666;9.434;2023-04-04T11:45:43;6.90;82.30
15676;DHT22;7938;47.666;9.434;2023-04-04T11:48:10;6.70;80.60
15676;DHT22;7938;47.666;9.434;2023-04-04T11:50:40;6.50;86.20
15676;DHT22;7938;47.666;9.434;2023-04-04T11:53:09;6.50;82.10
15676;DHT22;7938;47.666;9.434;2023-04-04T11:55:41;6.30;78.70
15676;DHT22;7938;47.666;9.434;2023-04-04T11:58:09;6.30;79.70
15676;DHT22;7938;47.666;9.434;2023-04-04T12:00:37;6.70;84.10
15676;DHT22;7938;47.666;9.434;2023-04-04T12:03:05;6.60;79.50
15676;DHT22;7938;47.666;9.434;2023-04-04T12:05:35;6.60;82.50
15676;DHT22;7938;47.666;9.434;2023-04-04T12:08:03;6.50;79.40
15676;DHT22;7938;47.666;9.434;2023-04-04T12:10:33;6.60;85.90
15676;DHT22;7938;47.666;9.434;2023-04-04T12:13:00;6.90;78.30
15676;DHT22;7938;47.666;9.434;2023-04-04T12:15:28;6.70;77.80
15676;DHT22;7938;47.666;9.434;2023-04-04T12:17:56;6.60;79.50
15676;DHT22;7938;47.666;9.434;2023-04-04T12:22:50;6.80;81.70
15676;DHT22;7938;47.666;9.434;2023-04-04T12:25:19;7.10;81.00
15676;DHT22;7938;47.666;9.434;2023-04-04T12:27:49;6.80;78.20
15676;DHT22;7938;47.666;9.434;2023-04-04T12:30:17;6.80;81.00
15676;DHT22;7938;47.666;9.434;2023-04-04T12:32:46;6.80;80.00
15676;DHT22;7938;47.666;9.434;2023-04-04T12:35:14;6.70;80.10
15676;DHT22;7938;47.666;9.434;2023-04-04T12:38:02;6.80;80.60
15676;DHT22;7938;47.666;9.434;2023-04-04T12:40:33;7.00;83.80
15676;DHT22;7938;47.666;9.434;2023-04-04T12:43:04;6.90;80.20
15676;DHT22;7938;47.666;9.434;2023-04-04T12:45:35;6.80;79.60
15676;DHT22;7938;47.666;9.434;2023-04-04T12:48:08;6.90;82.10
15676;DHT22;7938;47.666;9.434;2023-04-04T12:50:48;7.10;85.10
15676;DHT22;7938;47.666;9.434;2023-04-04T12:53:17;7.00;81.20
15676;DHT22;7938;47.666;9.434;2023-04-04T12:55:45;7.00;81.10
15676;DHT22;7938;47.666;9.434;2023-04-04T12:58:14;7.60;83.10
15676;DHT22;7938;47.666;9.434;2023-04-04T13:00:42;6.90;85.20
15676;DHT22;7938;47.666;9.434;2023-04-04T13:03:09;6.90;80.80
15676;DHT22;7938;47.666;9.434;2023-04-04T13:05:37;7.10;81.60
15676;DHT22;7938;47.666;9.434;2023-04-04T13:08:05;7.20;81.30
15676;DHT22;7938;47.666;9.434;2023-04-04T13:10:57;7.30;86.70
15676;DHT22;7938;47.666;9.434;2023-04-04T13:13:33;7.40;83.30
15676;DHT22;7938;47.666;9.434;2023-04-04T13:16:02;7.00;77.90
15676;DHT22;7938;47.666;9.434;2023-04-04T13:18:33;6.90;79.50
15676;DHT22;7938;47.666;9.434;2023-04-04T13:21:02;7.20;80.30
15676;DHT22;7938;47.666;9.434;2023-04-04T13:23:29;7.10;78.90
15676;DHT22;7938;47.666;9.434;2023-04-04T13:25:57;7.10;80.20
15676;DHT22;7938;47.666;9.434;2023-04-04T13:28:24;7.10;77.80
15676;DHT22;7938;47.666;9.434;2023-04-04T13:30:53;7.20;80.20
15676;DHT22;7938;47.666;9.434;2023-04-04T13:33:20;7.20;79.90
15676;DHT22;7938;47.666;9.434;2023-04-04T13:35:48;7.20;79.50
15676;DHT22;7938;47.666;9.434;2023-04-04T13:38:16;7.40;81.50
15676;DHT22;7938;47.666;9.434;2023-04-04T13:40:43;7.20;85.30
15676;DHT22;7938;47.666;9.434;2023-04-04T13:43:10;7.30;81.60
15676;DHT22;7938;47.666;9.434;2023-04-04T13:45:39;7.60;81.00
15676;DHT22;7938;47.666;9.434;2023-04-04T13:48:08;7.50;79.30
15676;DHT22;7938;47.666;9.434;2023-04-04T13:50:36;7.30;82.20
15676;DHT22;7938;47.666;9.434;2023-04-04T13:53:03;7.20;78.90
15676;DHT22;7938;47.666;9.434;2023-04-04T13:55:30;7.50;81.60
15676;DHT22;7938;47.666;9.434;2023-04-04T13:57:57;7.70;79.80
15676;DHT22;7938;47.666;9.434;2023-04-04T14:00:24;8.00;79.20
15676;DHT22;7938;47.666;9.434;2023-04-04T14:02:51;8.00;79.30
15676;DHT22;7938;47.666;9.434;2023-04-04T14:05:19;8.00;77.90
15676;DHT22;7938;47.666;9.434;2023-04-04T14:07:47;7.70;78.20
15676;DHT22;7938;47.666;9.434;2023-04-04T14:10:14;7.50;77.90
15676;DHT22;7938;47.666;9.434;2023-04-04T14:12:41;7.70;78.40
15676;DHT22;7938;47.666;9.434;2023-04-04T14:15:09;7.70;78.90
15676;DHT22;7938;47.666;9.434;2023-04-04T14:17:36;8.00;79.30
15676;DHT22;7938;47.666;9.434;2023-04-04T14:20:04;8.10;76.90
15676;DHT22;7938;47.666;9.434;2023-04-04T14:22:32;7.90;76.00
15676;DHT22;7938;47.666;9.434;2023-04-04T14:25:00;7.90;77.50
15676;DHT22;7938;47.666;9.434;2023-04-04T14:27:26;8.10;79.60
15676;DHT22;7938;47.666;9.434;2023-04-04T14:29:53;8.10;77.70
15676;DHT22;7938;47.666;9.434;2023-04-04T14:32:20;8.00;77.10
15676;DHT22;7938;47.666;9.434;2023-04-04T14:34:47;8.20;78.70
15676;DHT22;7938;47.666;9.434;2023-04-04T14:37:14;8.10;79.90
15676;DHT22;7938;47.666;9.434;2023-04-04T14:39:42;8.20;76.20
15676;DHT22;7938;47.666;9.434;2023-04-04T14:42:09;8.40;77.60
15676;DHT22;7938;47.666;9.434;2023-04-04T14:44:38;8.40;75.10
15676;DHT22;7938;47.666;9.434;2023-04-04T14:47:06;9.60;76.00
15676;DHT22;7938;47.666;9.434;2023-04-04T14:49:33;10.30;71.50
15676;DHT22;7938;47.666;9.434;2023-04-04T14:52:00;10.60;70.60
15676;DHT22;7938;47.666;9.434;2023-04-04T14:54:27;10.50;71.60
15676;DHT22;7938;47.666;9.434;2023-04-04T14:56:56;10.40;68.90
15676;DHT22;7938;47.666;9.434;2023-04-04T14:59:23;10.60;70.00
15676;DHT22;7938;47.666;9.434;2023-04-04T15:01:50;12.00;68.00
15676;DHT22;7938;47.666;9.434;2023-04-04T15:04:16;12.90;66.30
15676;DHT22;7938;47.666;9.434;2023-04-04T15:06:43;12.10;65.70
15676;DHT22;7938;47.666;9.434;2023-04-04T15:09:11;13.20;65.20
15676;DHT22;7938;47.666;9.434;2023-04-04T15:11:38;13.20;64.10
15676;DHT22;7938;47.666;9.434;2023-04-04T15:14:07;12.70;62.90
15676;DHT22;7938;47.666;9.434;2023-04-04T15:16:34;13.10;61.40
15676;DHT22;7938;47.666;9.434;2023-04-04T15:19:01;12.70;61.50
15676;DHT22;7938;47.666;9.434;2023-04-04T15:23:56;13.00;62.50
15676;DHT22;7938;47.666;9.434;2023-04-04T15:26:23;13.20;61.80
15676;DHT22;7938;47.666;9.434;2023-04-04T15:28:50;12.30;60.40
15676;DHT22;7938;47.666;9.434;2023-04-04T15:31:18;11.80;60.60
15676;DHT22;7938;47.666;9.434;2023-04-04T15:33:45;11.90;61.50
15676;DHT22;7938;47.666;9.434;2023-04-04T15:36:12;12.20;60.80
15676;DHT22;7938;47.666;9.434;2023-04-04T15:38:40;12.40;62.20
15676;DHT22;7938;47.666;9.434;2023-04-04T15:41:08;12.90;59.60
15676;DHT22;7938;47.666;9.434;2023-04-04T15:43:35;12.90;59.90
15676;DHT22;7938;47.666;9.434;2023-04-04T15:46:03;13.70;61.20
15676;DHT22;7938;47.666;9.434;2023-04-04T15:48:31;13.60;60.60
15676;DHT22;7938;47.666;9.434;2023-04-04T15:51:00;13.30;59.70
15676;DHT22;7938;47.666;9.434;2023-04-04T15:53:28;13.20;60.70
15676;DHT22;7938;47.666;9.434;2023-04-04T15:55:55;13.60;60.70
15676;DHT22;7938;47.666;9.434;2023-04-04T15:58:22;14.10;59.90
15676;DHT22;7938;47.666;9.434;2023-04-04T16:00:49;13.90;59.80
15676;DHT22;7938;47.666;9.434;2023-04-04T16:03:17;14.20;60.80
15676;DHT22;7938;47.666;9.434;2023-04-04T16:05:45;15.40;59.60
15676;DHT22;7938;47.666;9.434;2023-04-04T16:08:12;15.10;58.10
15676;DHT22;7938;47.666;9.434;2023-04-04T16:10:40;14.50;59.40
15676;DHT22;7938;47.666;9.434;2023-04-04T16:13:08;14.70;58.90
15676;DHT22;7938;47.666;9.434;2023-04-04T16:15:35;15.00;57.40
15676;DHT22;7938;47.666;9.434;2023-04-04T16:18:03;14.40;56.50
15676;DHT22;7938;47.666;9.434;2023-04-04T16:20:30;14.00;58.30
15676;DHT22;7938;47.666;9.434;2023-04-04T16:22:58;14.00;58.30
15676;DHT22;7938;47.666;9.434;2023-04-04T16:25:25;14.30;57.10
15676;DHT22;7938;47.666;9.434;2023-04-04T16:27:52;14.00;57.30
15676;DHT22;7938;47.666;9.434;2023-04-04T16:30:19;13.80;57.80
15676;DHT22;7938;47.666;9.434;2023-04-04T16:32:46;14.10;55.20
15676;DHT22;7938;47.666;9.434;2023-04-04T16:35:13;13.90;56.80
15676;DHT22;7938;47.666;9.434;2023-04-04T16:37:40;13.90;57.20
15676;DHT22;7938;47.666;9.434;2023-04-04T16:40:10;13.30;56.90
15676;DHT22;7938;47.666;9.434;2023-04-04T16:42:37;13.30;56.80
15676;DHT22;7938;47.666;9.434;2023-04-04T16:45:04;13.10;58.10
15676;DHT22;7938;47.666;9.434;2023-04-04T16:47:33;13.10;57.40
15676;DHT22;7938;47.666;9.434;2023-04-04T16:50:01;13.40;56.80
15676;DHT22;7938;47.666;9.434;2023-04-04T16:52:28;13.40;57.30
15676;DHT22;7938;47.666;9.434;2023-04-04T16:54:55;12.40;56.70
15676;DHT22;7938;47.666;9.434;2023-04-04T16:57:24;11.50;58.60
15676;DHT22;7938;47.666;9.434;2023-04-04T16:59:51;10.60;58.40
15676;DHT22;7938;47.666;9.434;2023-04-04T17:02:18;9.50;61.10
15676;DHT22;7938;47.666;9.434;2023-04-04T17:04:44;9.10;61.80
15676;DHT22;7938;47.666;9.434;2023-04-04T17:07:11;8.70;64.20
15676;DHT22;7938;47.666;9.434;2023-04-04T17:09:38;8.40;63.80
15676;DHT22;7938;47.666;9.434;2023-04-04T17:12:05;8.10;65.00
15676;DHT22;7938;47.666;9.434;2023-04-04T17:14:34;8.00;66.60
15676;DHT22;7938;47.666;9.434;2023-04-04T17:17:01;7.40;66.20
15676;DHT22;7938;47.666;9.434;2023-04-04T17:19:31;6.90;66.10
15676;DHT22;7938;47.666;9.434;2023-04-04T17:21:59;6.50;67.20
15676;DHT22;7938;47.666;9.434;2023-04-04T17:24:27;6.40;67.40
15676;DHT22;7938;47.666;9.434;2023-04-04T17:26:55;6.20;68.90
15676;DHT22;7938;47.666;9.434;2023-04-04T17:31:54;5.70;69.10
15676;DHT22;7938;47.666;9.434;2023-04-04T17:34:21;5.60;69.80
15676;DHT22;7938;47.666;9.434;2023-04-04T17:36:49;5.80;69.90
15676;DHT22;7938;47.666;9.434;2023-04-04T17:39:16;5.40;71.50
15676;DHT22;7938;47.666;9.434;2023-04-04T17:41:43;5.30;70.20
15676;DHT22;7938;47.666;9.434;2023-04-04T17:44:12;5.30;73.50
15676;DHT22;7938;47.666;9.434;2023-04-04T17:46:39;5.10;72.70
15676;DHT22;7938;47.666;9.434;2023-04-04T17:49:07;4.80;72.60
15676;DHT22;7938;47.666;9.434;2023-04-04T17:54:02;4.50;73.00
15676;DHT22;7938;47.666;9.434;2023-04-04T17:56:29;4.40;74.10
15676;DHT22;7938;47.666;9.434;2023-04-04T17:58:56;4.30;74.50
15676;DHT22;7938;47.666;9.434;2023-04-04T18:01:23;4.10;74.20
15676;DHT22;7938;47.666;9.434;2023-04-04T18:03:52;4.10;74.80
15676;DHT22;7938;47.666;9.434;2023-04-04T18:06:20;3.90;76.00
15676;DHT22;7938;47.666;9.434;2023-04-04T18:08:48;3.90;76.50
15676;DHT22;7938;47.666;9.434;2023-04-04T18:11:15;3.80;75.60
15676;DHT22;7938;47.666;9.434;2023-04-04T18:13:42;3.80;76.10
15676;DHT22;7938;47.666;9.434;2023-04-04T18:16:09;3.70;76.40
15676;DHT22;7938;47.666;9.434;2023-04-04T18:18:36;3.60;76.70
15676;DHT22;7938;47.666;9.434;2023-04-04T18:21:05;3.40;77.50
15676;DHT22;7938;47.666;9.434;2023-04-04T18:23:33;3.50;83.80
15676;DHT22;7938;47.666;9.434;2023-04-04T18:26:00;3.40;78.30
15676;DHT22;7938;47.666;9.434;2023-04-04T18:28:27;3.30;77.50
15676;DHT22;7938;47.666;9.434;2023-04-04T18:30:54;3.20;77.80
15676;DHT22;7938;47.666;9.434;2023-04-04T18:33:21;3.30;79.60
15676;DHT22;7938;47.666;9.434;2023-04-04T18:35:49;3.30;78.80
15676;DHT22;7938;47.666;9.434;2023-04-04T18:38:16;3.30;79.40
15676;DHT22;7938;47.666;9.434;2023-04-04T18:40:45;3.30;84.30
15676;DHT22;7938;47.666;9.434;2023-04-04T18:43:12;3.30;79.00
15676;DHT22;7938;47.666;9.434;2023-04-04T18:45:39;3.30;80.00
15676;DHT22;7938;47.666;9.434;2023-04-04T18:48:06;3.20;79.30
15676;DHT22;7938;47.666;9.434;2023-04-04T18:50:33;2.90;84.10
15676;DHT22;7938;47.666;9.434;2023-04-04T18:53:01;2.90;79.90
15676;DHT22;7938;47.666;9.434;2023-04-04T18:55:28;2.80;80.20
15676;DHT22;7938;47.666;9.434;2023-04-04T18:57:56;2.70;80.30
15676;DHT22;7938;47.666;9.434;2023-04-04T19:00:23;2.60;80.30
15676;DHT22;7938;47.666;9.434;2023-04-04T19:02:51;2.60;80.10
15676;DHT22;7938;47.666;9.434;2023-04-04T19:05:21;2.50;80.60
15676;DHT22;7938;47.666;9.434;2023-04-04T19:07:50;2.40;80.30
15676;DHT22;7938;47.666;9.434;2023-04-04T19:10:18;2.40;80.80
15676;DHT22;7938;47.666;9.434;2023-04-04T19:12:45;2.40;80.50
15676;DHT22;7938;47.666;9.434;2023-04-04T19:15:14;2.30;81.60
15676;DHT22;7938;47.666;9.434;2023-04-04T19:17:41;2.30;81.40
15676;DHT22;7938;47.666;9.434;2023-04-04T19:22:36;2.20;82.00
15676;DHT22;7938;47.666;9.434;2023-04-04T19:25:03;2.20;83.30
15676;DHT22;7938;47.666;9.434;2023-04-04T19:27:30;2.20;82.20
15676;DHT22;7938;47.666;9.434;2023-04-04T19:29:57;2.20;82.30
15676;DHT22;7938;47.666;9.434;2023-04-04T19:32:26;2.10;82.10
15676;DHT22;7938;47.666;9.434;2023-04-04T19:34:53;2.50;83.00
15676;DHT22;7938;47.666;9.434;2023-04-04T19:37:20;1.10;82.00
15676;DHT22;7938;47.666;9.434;2023-04-04T19:39:47;2.00;83.10
15676;DHT22;7938;47.666;9.434;2023-04-04T19:42:18;2.10;83.50
15676;DHT22;7938;47.666;9.434;2023-04-04T19:44:50;2.00;83.30
15676;DHT22;7938;47.666;9.434;2023-04-04T19:47:18;2.00;83.20
15676;DHT22;7938;47.666;9.434;2023-04-04T19:49:47;1.90;85.10
15676;DHT22;7938;47.666;9.434;2023-04-04T19:52:21;1.90;83.90
15676;DHT22;7938;47.666;9.434;2023-04-04T19:54:48;1.80;84.20
15676;DHT22;7938;47.666;9.434;2023-04-04T19:57:18;1.80;84.20
15676;DHT22;7938;47.666;9.434;2023-04-04T19:59:55;1.70;85.40
15676;DHT22;7938;47.666;9.434;2023-04-04T20:02:53;1.70;85.30
15676;DHT22;7938;47.666;9.434;2023-04-04T20:08:24;1.60;85.40
15676;DHT22;7938;47.666;9.434;2023-04-04T20:10:56;1.50;85.50
15676;DHT22;7938;47.666;9.434;2023-04-04T20:13:23;1.50;85.60
15676;DHT22;7938;47.666;9.434;2023-04-04T20:16:01;1.60;86.50
15676;DHT22;7938;47.666;9.434;2023-04-04T20:18:30;1.60;86.30
15676;DHT22;7938;47.666;9.434;2023-04-04T20:21:04;1.60;86.60
15676;DHT22;7938;47.666;9.434;2023-04-04T20:23:40;1.50;86.20
15676;DHT22;7938;47.666;9.434;2023-04-04T20:26:08;1.40;87.00
15676;DHT22;7938;47.666;9.434;2023-04-04T20:28:42;1.40;87.20
15676;DHT22;7938;47.666;9.434;2023-04-04T20:31:14;1.40;87.40
15676;DHT22;7938;47.666;9.434;2023-04-04T20:33:41;1.40;87.80
15676;DHT22;7938;47.666;9.434;2023-04-04T20:36:11;1.40;87.30
15676;DHT22;7938;47.666;9.434;2023-04-04T20:38:40;1.50;87.60
15676;DHT22;7938;47.666;9.434;2023-04-04T20:41:16;1.30;86.50